sensor_id;sensor_type;location;lat;lon;timestamp;temperature;humidity
15554;DHT22;7878;44.632;10.942;2023-06-26T00:00:04;25.80;99.90
15554;DHT22;7878;44.632;10.942;2023-06-26T00:02:30;25.80;99.90
15554;DHT22;7878;44.632;10.942;2023-06-26T00:04:58;25.80;99.90
15554;DHT22;7878;44.632;10.942;2023-06-26T00:07:28;25.80;99.90
15554;DHT22;7878;44.632;10.942;2023-06-26T00:09:54;25.80;99.90
15554;DHT22;7878;44.632;10.942;2023-06-26T00:12:19;25.90;99.90
15554;DHT22;7878;44.632;10.942;2023-06-26T00:14:45;25.80;99.90
15554;DHT22;7878;44.632;10.942;2023-06-26T00:17:11;25.80;99.90
15554;DHT22;7878;44.632;10.942;2023-06-26T00:19:37;25.80;99.90
15554;DHT22;7878;44.632;10.942;2023-06-26T00:22:03;25.70;99.90
15554;DHT22;7878;44.632;10.942;2023-06-26T00:24:29;25.70;99.90
15554;DHT22;7878;44.632;10.942;2023-06-26T00:26:54;25.60;99.90
15554;DHT22;7878;44.632;10.942;2023-06-26T00:29:20;25.50;99.90
15554;DHT22;7878;44.632;10.942;2023-06-26T00:31:46;25.40;99.90
15554;DHT22;7878;44.632;10.942;2023-06-26T00:34:11;25.30;99.90
15554;DHT22;7878;44.632;10.942;2023-06-26T00:36:37;25.40;99.90
15554;DHT22;7878;44.632;10.942;2023-06-26T00:39:03;25.40;99.90
15554;DHT22;7878;44.632;10.942;2023-06-26T00:41:29;25.30;99.90
15554;DHT22;7878;44.632;10.942;2023-06-26T00:43:55;25.30;99.90
15554;DHT22;7878;44.632;10.942;2023-06-26T00:46:20;25.30;99.90
15554;DHT22;7878;44.632;10.942;2023-06-26T00:48:48;25.40;99.90
15554;DHT22;7878;44.632;10.942;2023-06-26T00:51:14;25.30;99.90
15554;DHT22;7878;44.632;10.942;2023-06-26T00:53:41;25.30;99.90
15554;DHT22;7878;44.632;10.942;2023-06-26T00:56:08;25.20;99.90
15554;DHT22;7878;44.632;10.942;2023-06-26T00:58:33;25.20;99.90
15554;DHT22;7878;44.632;10.942;2023-06-26T01:00:59;25.20;99.90
15554;DHT22;7878;44.632;10.942;2023-06-26T01:03:26;25.30;99.90
15554;DHT22;7878;44.632;10.942;2023-06-26T01:05:52;25.20;99.90
15554;DHT22;7878;44.632;10.942;2023-06-26T01:08:19;25.20;99.90
15554;DHT22;7878;44.632;10.942;2023-06-26T01:10:46;25.20;99.90
15554;DHT22;7878;44.632;10.942;2023-06-26T01:13:13;25.00;99.90
15554;DHT22;7878;44.632;10.942;2023-06-26T01:15:40;24.90;99.90
15554;DHT22;7878;44.632;10.942;2023-06-26T01:18:06;24.90;99.90
15554;DHT22;7878;44.632;10.942;2023-06-26T01:20:37;24.90;99.90
15554;DHT22;7878;44.632;10.942;2023-06-26T01:28:10;25.10;99.90
15554;DHT22;7878;44.632;10.942;2023-06-26T01:30:41;25.10;99.90
15554;DHT22;7878;44.632;10.942;2023-06-26T01:33:08;25.00;99.90
15554;DHT22;7878;44.632;10.942;2023-06-26T01:35:34;25.00;99.90
15554;DHT22;7878;44.632;10.942;2023-06-26T01:40:39;24.80;99.90
15554;DHT22;7878;44.632;10.942;2023-06-26T01:43:06;24.70;99.90
15554;DHT22;7878;44.632;10.942;2023-06-26T01:45:34;24.70;99.90
15554;DHT22;7878;44.632;10.942;2023-06-26T01:48:01;24.60;99.90
15554;DHT22;7878;44.632;10.942;2023-06-26T01:50:31;24.60;99.90
15554;DHT22;7878;44.632;10.942;2023-06-26T01:53:10;24.70;99.90
15554;DHT22;7878;44.632;10.942;2023-06-26T01:55:40;24.80;99.90
15554;DHT22;7878;44.632;10.942;2023-06-26T01:58:07;24.90;99.90
15554;DHT22;7878;44.632;10.942;2023-06-26T02:00:34;24.90;99.90
15554;DHT22;7878;44.632;10.942;2023-06-26T02:03:01;24.90;99.90
15554;DHT22;7878;44.632;10.942;2023-06-26T02:05:27;24.90;99.90
15554;DHT22;7878;44.632;10.942;2023-06-26T02:07:52;24.90;99.90
15554;DHT22;7878;44.632;10.942;2023-06-26T02:10:18;24.90;99.90
15554;DHT22;7878;44.632;10.942;2023-06-26T02:12:44;24.90;99.90
15554;DHT22;7878;44.632;10.942;2023-06-26T02:15:09;24.90;99.90
15554;DHT22;7878;44.632;10.942;2023-06-26T02:17:35;24.90;99.90
15554;DHT22;7878;44.632;10.942;2023-06-26T02:20:01;24.90;99.90
15554;DHT22;7878;44.632;10.942;2023-06-26T02:22:26;24.90;99.90
15554;DHT22;7878;44.632;10.942;2023-06-26T02:24:54;24.90;99.90
15554;DHT22;7878;44.632;10.942;2023-06-26T02:27:19;24.90;99.90
15554;DHT22;7878;44.632;10.942;2023-06-26T02:29:45;24.90;99.90
15554;DHT22;7878;44.632;10.942;2023-06-26T02:32:11;24.90;99.90
15554;DHT22;7878;44.632;10.942;2023-06-26T02:34:36;24.90;99.90
15554;DHT22;7878;44.632;10.942;2023-06-26T02:37:02;24.90;99.90
15554;DHT22;7878;44.632;10.942;2023-06-26T02:39:28;24.90;99.90
15554;DHT22;7878;44.632;10.942;2023-06-26T02:41:54;24.80;99.90
15554;DHT22;7878;44.632;10.942;2023-06-26T02:44:19;24.80;99.90
15554;DHT22;7878;44.632;10.942;2023-06-26T02:46:46;24.70;99.90
15554;DHT22;7878;44.632;10.942;2023-06-26T02:49:12;24.70;99.90
15554;DHT22;7878;44.632;10.942;2023-06-26T02:51:38;24.70;99.90
15554;DHT22;7878;44.632;10.942;2023-06-26T02:54:03;24.60;99.90
15554;DHT22;7878;44.632;10.942;2023-06-26T02:56:29;24.70;99.90
15554;DHT22;7878;44.632;10.942;2023-06-26T02:58:58;24.70;99.90
15554;DHT22;7878;44.632;10.942;2023-06-26T03:01:24;24.70;99.90
15554;DHT22;7878;44.632;10.942;2023-06-26T03:03:50;24.70;99.90
15554;DHT22;7878;44.632;10.942;2023-06-26T03:06:16;24.70;99.90
15554;DHT22;7878;44.632;10.942;2023-06-26T03:08:41;24.60;99.90
15554;DHT22;7878;44.632;10.942;2023-06-26T03:11:08;24.60;99.90
15554;DHT22;7878;44.632;10.942;2023-06-26T03:13:35;24.60;99.90
15554;DHT22;7878;44.632;10.942;2023-06-26T03:16:00;24.60;99.90
15554;DHT22;7878;44.632;10.942;2023-06-26T03:18:26;24.60;99.90
15554;DHT22;7878;44.632;10.942;2023-06-26T03:20:53;24.60;99.90
15554;DHT22;7878;44.632;10.942;2023-06-26T03:23:22;24.60;99.90
15554;DHT22;7878;44.632;10.942;2023-06-26T03:25:49;24.60;99.90
15554;DHT22;7878;44.632;10.942;2023-06-26T03:28:15;24.60;99.90
15554;DHT22;7878;44.632;10.942;2023-06-26T03:30:40;24.60;99.90
15554;DHT22;7878;44.632;10.942;2023-06-26T03:33:06;24.60;99.90
15554;DHT22;7878;44.632;10.942;2023-06-26T03:35:32;24.60;99.90
15554;DHT22;7878;44.632;10.942;2023-06-26T03:37:58;24.60;99.90
15554;DHT22;7878;44.632;10.942;2023-06-26T03:40:24;24.60;99.90
15554;DHT22;7878;44.632;10.942;2023-06-26T03:42:50;24.50;99.90
15554;DHT22;7878;44.632;10.942;2023-06-26T03:45:15;24.50;99.90
15554;DHT22;7878;44.632;10.942;2023-06-26T03:47:41;24.50;99.90
15554;DHT22;7878;44.632;10.942;2023-06-26T03:50:07;24.50;99.90
15554;DHT22;7878;44.632;10.942;2023-06-26T03:52:33;24.50;99.90
15554;DHT22;7878;44.632;10.942;2023-06-26T03:54:59;24.50;99.90
15554;DHT22;7878;44.632;10.942;2023-06-26T03:57:25;24.50;99.90
15554;DHT22;7878;44.632;10.942;2023-06-26T03:59:51;24.50;99.90
15554;DHT22;7878;44.632;10.942;2023-06-26T04:02:17;24.50;99.90
15554;DHT22;7878;44.632;10.942;2023-06-26T04:04:43;24.50;99.90
15554;DHT22;7878;44.632;10.942;2023-06-26T04:07:08;24.50;99.90
15554;DHT22;7878;44.632;10.942;2023-06-26T04:09:34;24.50;99.90
15554;DHT22;7878;44.632;10.942;2023-06-26T04:12:00;24.50;99.90
15554;DHT22;7878;44.632;10.942;2023-06-26T04:14:26;24.40;99.90
15554;DHT22;7878;44.632;10.942;2023-06-26T04:16:51;24.40;99.90
15554;DHT22;7878;44.632;10.942;2023-06-26T04:19:17;24.40;99.90
15554;DHT22;7878;44.632;10.942;2023-06-26T04:21:43;24.40;99.90
15554;DHT22;7878;44.632;10.942;2023-06-26T04:24:09;24.40;99.90
15554;DHT22;7878;44.632;10.942;2023-06-26T04:26:34;24.40;99.90
15554;DHT22;7878;44.632;10.942;2023-06-26T04:29:01;24.40;99.90
15554;DHT22;7878;44.632;10.942;2023-06-26T04:31:26;24.40;99.90
15554;DHT22;7878;44.632;10.942;2023-06-26T04:33:52;24.40;99.90
15554;DHT22;7878;44.632;10.942;2023-06-26T04:36:21;24.40;99.90
15554;DHT22;7878;44.632;10.942;2023-06-26T04:38:46;24.50;99.90
15554;DHT22;7878;44.632;10.942;2023-06-26T04:41:14;24.40;99.90
15554;DHT22;7878;44.632;10.942;2023-06-26T04:43:39;24.40;99.90
15554;DHT22;7878;44.632;10.942;2023-06-26T04:46:05;24.50;99.90
15554;DHT22;7878;44.632;10.942;2023-06-26T04:48:32;24.40;99.90
15554;DHT22;7878;44.632;10.942;2023-06-26T04:50:57;24.40;99.90
15554;DHT22;7878;44.632;10.942;2023-06-26T04:53:24;24.40;99.90
15554;DHT22;7878;44.632;10.942;2023-06-26T04:55:53;24.40;99.90
15554;DHT22;7878;44.632;10.942;2023-06-26T04:58:19;24.40;99.90
15554;DHT22;7878;44.632;10.942;2023-06-26T05:00:45;24.30;99.90
15554;DHT22;7878;44.632;10.942;2023-06-26T05:03:12;24.30;99.90
15554;DHT22;7878;44.632;10.942;2023-06-26T05:05:38;24.30;99.90
15554;DHT22;7878;44.632;10.942;2023-06-26T05:08:14;24.30;99.90
15554;DHT22;7878;44.632;10.942;2023-06-26T05:10:41;24.30;99.90
15554;DHT22;7878;44.632;10.942;2023-06-26T05:13:06;24.30;99.90
15554;DHT22;7878;44.632;10.942;2023-06-26T05:15:32;24.30;99.90
15554;DHT22;7878;44.632;10.942;2023-06-26T05:17:58;24.40;99.90
15554;DHT22;7878;44.632;10.942;2023-06-26T05:20:23;24.40;99.90
15554;DHT22;7878;44.632;10.942;2023-06-26T05:22:49;24.50;99.90
15554;DHT22;7878;44.632;10.942;2023-06-26T05:25:16;24.50;99.90
15554;DHT22;7878;44.632;10.942;2023-06-26T05:27:43;24.50;99.90
15554;DHT22;7878;44.632;10.942;2023-06-26T05:30:09;24.50;99.90
15554;DHT22;7878;44.632;10.942;2023-06-26T05:32:37;24.60;99.90
15554;DHT22;7878;44.632;10.942;2023-06-26T05:35:03;24.60;99.90
15554;DHT22;7878;44.632;10.942;2023-06-26T05:37:31;24.60;99.90
15554;DHT22;7878;44.632;10.942;2023-06-26T05:39:56;24.70;99.90
15554;DHT22;7878;44.632;10.942;2023-06-26T05:42:22;24.70;99.90
15554;DHT22;7878;44.632;10.942;2023-06-26T05:44:48;24.80;99.90
15554;DHT22;7878;44.632;10.942;2023-06-26T05:47:14;24.90;99.90
15554;DHT22;7878;44.632;10.942;2023-06-26T05:49:39;24.90;99.90
15554;DHT22;7878;44.632;10.942;2023-06-26T05:52:05;25.00;99.90
15554;DHT22;7878;44.632;10.942;2023-06-26T05:54:31;25.00;99.90
15554;DHT22;7878;44.632;10.942;2023-06-26T05:56:58;25.00;99.90
15554;DHT22;7878;44.632;10.942;2023-06-26T05:59:27;25.00;99.90
15554;DHT22;7878;44.632;10.942;2023-06-26T06:01:53;25.10;99.90
15554;DHT22;7878;44.632;10.942;2023-06-26T06:04:19;25.20;99.90
15554;DHT22;7878;44.632;10.942;2023-06-26T06:06:45;25.40;99.90
15554;DHT22;7878;44.632;10.942;2023-06-26T06:09:10;25.50;99.90
15554;DHT22;7878;44.632;10.942;2023-06-26T06:11:36;25.50;99.90
15554;DHT22;7878;44.632;10.942;2023-06-26T06:14:02;25.40;99.90
15554;DHT22;7878;44.632;10.942;2023-06-26T06:16:28;25.50;99.90
15554;DHT22;7878;44.632;10.942;2023-06-26T06:18:54;25.50;99.90
15554;DHT22;7878;44.632;10.942;2023-06-26T06:21:20;25.50;99.90
15554;DHT22;7878;44.632;10.942;2023-06-26T06:23:46;25.50;99.90
15554;DHT22;7878;44.632;10.942;2023-06-26T06:26:12;25.60;99.90
15554;DHT22;7878;44.632;10.942;2023-06-26T06:28:39;25.60;99.90
15554;DHT22;7878;44.632;10.942;2023-06-26T06:31:04;25.60;99.90
15554;DHT22;7878;44.632;10.942;2023-06-26T06:33:30;25.60;99.90
15554;DHT22;7878;44.632;10.942;2023-06-26T06:35:56;25.70;99.90
15554;DHT22;7878;44.632;10.942;2023-06-26T06:38:22;25.80;99.90
15554;DHT22;7878;44.632;10.942;2023-06-26T06:40:48;25.90;99.90
15554;DHT22;7878;44.632;10.942;2023-06-26T06:43:14;25.90;99.90
15554;DHT22;7878;44.632;10.942;2023-06-26T06:45:39;25.90;99.90
15554;DHT22;7878;44.632;10.942;2023-06-26T06:48:05;25.90;99.90
15554;DHT22;7878;44.632;10.942;2023-06-26T06:50:31;26.00;99.90
15554;DHT22;7878;44.632;10.942;2023-06-26T06:52:57;26.10;99.90
15554;DHT22;7878;44.632;10.942;2023-06-26T06:55:22;26.00;99.90
15554;DHT22;7878;44.632;10.942;2023-06-26T06:57:49;26.10;99.90
15554;DHT22;7878;44.632;10.942;2023-06-26T07:00:16;26.20;99.90
15554;DHT22;7878;44.632;10.942;2023-06-26T07:02:46;26.30;99.90
15554;DHT22;7878;44.632;10.942;2023-06-26T07:05:12;26.30;99.90
15554;DHT22;7878;44.632;10.942;2023-06-26T07:07:38;26.40;99.90
15554;DHT22;7878;44.632;10.942;2023-06-26T07:10:14;26.40;99.90
15554;DHT22;7878;44.632;10.942;2023-06-26T07:12:39;26.50;99.90
15554;DHT22;7878;44.632;10.942;2023-06-26T07:15:06;26.50;99.90
15554;DHT22;7878;44.632;10.942;2023-06-26T07:17:33;26.50;99.90
15554;DHT22;7878;44.632;10.942;2023-06-26T07:20:00;26.50;99.90
15554;DHT22;7878;44.632;10.942;2023-06-26T07:22:26;26.60;99.90
15554;DHT22;7878;44.632;10.942;2023-06-26T07:24:52;26.60;99.90
15554;DHT22;7878;44.632;10.942;2023-06-26T07:27:18;26.60;99.90
15554;DHT22;7878;44.632;10.942;2023-06-26T07:29:44;26.70;99.90
15554;DHT22;7878;44.632;10.942;2023-06-26T07:32:10;26.70;99.90
15554;DHT22;7878;44.632;10.942;2023-06-26T07:34:36;26.70;99.90
15554;DHT22;7878;44.632;10.942;2023-06-26T07:37:02;26.80;99.90
15554;DHT22;7878;44.632;10.942;2023-06-26T07:39:27;26.80;99.90
15554;DHT22;7878;44.632;10.942;2023-06-26T07:41:53;26.80;99.90
15554;DHT22;7878;44.632;10.942;2023-06-26T07:44:19;26.90;99.90
15554;DHT22;7878;44.632;10.942;2023-06-26T07:46:44;26.90;99.90
15554;DHT22;7878;44.632;10.942;2023-06-26T07:49:11;27.00;99.90
15554;DHT22;7878;44.632;10.942;2023-06-26T07:51:37;27.10;99.90
15554;DHT22;7878;44.632;10.942;2023-06-26T07:54:03;27.10;99.90
15554;DHT22;7878;44.632;10.942;2023-06-26T07:56:28;27.10;99.90
15554;DHT22;7878;44.632;10.942;2023-06-26T07:58:54;27.20;99.90
15554;DHT22;7878;44.632;10.942;2023-06-26T08:01:20;27.20;99.90
15554;DHT22;7878;44.632;10.942;2023-06-26T08:03:46;27.20;99.90
15554;DHT22;7878;44.632;10.942;2023-06-26T08:06:11;27.30;99.90
15554;DHT22;7878;44.632;10.942;2023-06-26T08:08:37;27.30;99.90
15554;DHT22;7878;44.632;10.942;2023-06-26T08:11:03;27.30;99.90
15554;DHT22;7878;44.632;10.942;2023-06-26T08:13:28;27.30;99.90
15554;DHT22;7878;44.632;10.942;2023-06-26T08:15:54;27.40;99.90
15554;DHT22;7878;44.632;10.942;2023-06-26T08:18:20;27.40;99.90
15554;DHT22;7878;44.632;10.942;2023-06-26T08:20:46;27.40;99.90
15554;DHT22;7878;44.632;10.942;2023-06-26T08:23:12;27.40;99.90
15554;DHT22;7878;44.632;10.942;2023-06-26T08:25:37;27.50;99.90
15554;DHT22;7878;44.632;10.942;2023-06-26T08:28:03;27.50;99.90
15554;DHT22;7878;44.632;10.942;2023-06-26T08:30:29;27.60;99.90
15554;DHT22;7878;44.632;10.942;2023-06-26T08:32:55;27.60;99.90
15554;DHT22;7878;44.632;10.942;2023-06-26T08:35:21;27.70;99.90
15554;DHT22;7878;44.632;10.942;2023-06-26T08:37:47;27.70;99.90
15554;DHT22;7878;44.632;10.942;2023-06-26T08:40:13;27.80;99.90
15554;DHT22;7878;44.632;10.942;2023-06-26T08:42:41;27.80;99.90
15554;DHT22;7878;44.632;10.942;2023-06-26T08:45:07;27.80;99.90
15554;DHT22;7878;44.632;10.942;2023-06-26T08:47:35;27.80;99.90
15554;DHT22;7878;44.632;10.942;2023-06-26T08:50:08;27.90;99.90
15554;DHT22;7878;44.632;10.942;2023-06-26T08:52:40;27.90;99.90
15554;DHT22;7878;44.632;10.942;2023-06-26T08:55:09;28.00;99.90
15554;DHT22;7878;44.632;10.942;2023-06-26T08:57:38;28.00;99.90
15554;DHT22;7878;44.632;10.942;2023-06-26T09:00:04;28.10;99.90
15554;DHT22;7878;44.632;10.942;2023-06-26T09:02:30;28.10;99.90
15554;DHT22;7878;44.632;10.942;2023-06-26T09:04:57;28.10;99.90
15554;DHT22;7878;44.632;10.942;2023-06-26T09:07:23;28.20;99.90
15554;DHT22;7878;44.632;10.942;2023-06-26T09:09:48;28.30;99.90
15554;DHT22;7878;44.632;10.942;2023-06-26T09:12:14;28.30;99.90
15554;DHT22;7878;44.632;10.942;2023-06-26T09:14:40;28.40;99.90
15554;DHT22;7878;44.632;10.942;2023-06-26T09:17:06;28.50;99.90
15554;DHT22;7878;44.632;10.942;2023-06-26T09:19:32;28.50;99.90
15554;DHT22;7878;44.632;10.942;2023-06-26T09:21:58;28.60;99.90
15554;DHT22;7878;44.632;10.942;2023-06-26T09:24:23;28.70;99.90
15554;DHT22;7878;44.632;10.942;2023-06-26T09:26:51;28.70;99.90
15554;DHT22;7878;44.632;10.942;2023-06-26T09:29:18;28.70;99.90
15554;DHT22;7878;44.632;10.942;2023-06-26T09:31:44;28.70;99.90
15554;DHT22;7878;44.632;10.942;2023-06-26T09:34:10;28.70;99.90
15554;DHT22;7878;44.632;10.942;2023-06-26T09:36:36;28.80;99.90
15554;DHT22;7878;44.632;10.942;2023-06-26T09:39:06;28.80;99.90
15554;DHT22;7878;44.632;10.942;2023-06-26T09:41:36;28.90;99.90
15554;DHT22;7878;44.632;10.942;2023-06-26T09:44:05;28.90;99.90
15554;DHT22;7878;44.632;10.942;2023-06-26T09:46:31;28.90;99.90
15554;DHT22;7878;44.632;10.942;2023-06-26T09:49:05;28.90;99.90
15554;DHT22;7878;44.632;10.942;2023-06-26T09:51:35;29.00;99.90
15554;DHT22;7878;44.632;10.942;2023-06-26T09:54:01;29.00;99.90
15554;DHT22;7878;44.632;10.942;2023-06-26T09:56:28;29.00;99.90
15554;DHT22;7878;44.632;10.942;2023-06-26T09:58:59;29.10;99.90
15554;DHT22;7878;44.632;10.942;2023-06-26T10:01:25;29.20;99.90
15554;DHT22;7878;44.632;10.942;2023-06-26T10:03:51;29.30;99.90
15554;DHT22;7878;44.632;10.942;2023-06-26T10:06:32;29.40;99.90
15554;DHT22;7878;44.632;10.942;2023-06-26T10:09:00;29.50;99.90
15554;DHT22;7878;44.632;10.942;2023-06-26T10:11:46;29.60;99.90
15554;DHT22;7878;44.632;10.942;2023-06-26T10:14:13;29.80;99.90
15554;DHT22;7878;44.632;10.942;2023-06-26T10:16:42;30.20;99.90
15554;DHT22;7878;44.632;10.942;2023-06-26T10:19:10;30.60;99.90
15554;DHT22;7878;44.632;10.942;2023-06-26T10:21:38;31.00;99.90
15554;DHT22;7878;44.632;10.942;2023-06-26T10:24:06;31.80;99.90
15554;DHT22;7878;44.632;10.942;2023-06-26T10:26:36;32.90;99.90
15554;DHT22;7878;44.632;10.942;2023-06-26T10:29:03;33.40;99.90
15554;DHT22;7878;44.632;10.942;2023-06-26T10:31:29;34.10;99.90
15554;DHT22;7878;44.632;10.942;2023-06-26T10:33:56;34.70;99.90
15554;DHT22;7878;44.632;10.942;2023-06-26T10:36:29;34.90;99.90
15554;DHT22;7878;44.632;10.942;2023-06-26T10:38:58;34.80;99.90
15554;DHT22;7878;44.632;10.942;2023-06-26T10:41:25;34.20;99.90
15554;DHT22;7878;44.632;10.942;2023-06-26T10:44:15;33.80;99.90
15554;DHT22;7878;44.632;10.942;2023-06-26T10:46:52;33.90;99.90
15554;DHT22;7878;44.632;10.942;2023-06-26T10:49:30;33.70;99.90
15554;DHT22;7878;44.632;10.942;2023-06-26T10:52:01;33.30;99.90
15554;DHT22;7878;44.632;10.942;2023-06-26T10:54:31;33.20;99.90
15554;DHT22;7878;44.632;10.942;2023-06-26T10:56:57;33.00;99.90
15554;DHT22;7878;44.632;10.942;2023-06-26T10:59:25;33.00;99.90
15554;DHT22;7878;44.632;10.942;2023-06-26T11:02:02;33.00;99.90
15554;DHT22;7878;44.632;10.942;2023-06-26T11:04:55;33.00;99.90
15554;DHT22;7878;44.632;10.942;2023-06-26T11:07:26;33.10;99.90
15554;DHT22;7878;44.632;10.942;2023-06-26T11:10:02;33.10;99.90
15554;DHT22;7878;44.632;10.942;2023-06-26T11:12:42;33.10;99.90
15554;DHT22;7878;44.632;10.942;2023-06-26T11:15:15;33.20;99.90
15554;DHT22;7878;44.632;10.942;2023-06-26T11:17:42;33.20;99.90
15554;DHT22;7878;44.632;10.942;2023-06-26T11:20:10;33.20;99.90
15554;DHT22;7878;44.632;10.942;2023-06-26T11:22:38;33.10;99.90
15554;DHT22;7878;44.632;10.942;2023-06-26T11:25:08;33.10;99.90
15554;DHT22;7878;44.632;10.942;2023-06-26T11:27:41;33.10;99.90
15554;DHT22;7878;44.632;10.942;2023-06-26T11:30:21;33.10;99.90
15554;DHT22;7878;44.632;10.942;2023-06-26T11:32:47;33.10;99.90
15554;DHT22;7878;44.632;10.942;2023-06-26T11:35:13;33.00;99.90
15554;DHT22;7878;44.632;10.942;2023-06-26T11:37:47;33.00;99.90
15554;DHT22;7878;44.632;10.942;2023-06-26T11:40:19;32.90;99.90
15554;DHT22;7878;44.632;10.942;2023-06-26T11:42:45;32.80;99.90
15554;DHT22;7878;44.632;10.942;2023-06-26T11:45:11;32.80;99.90
15554;DHT22;7878;44.632;10.942;2023-06-26T11:47:38;32.80;99.90
15554;DHT22;7878;44.632;10.942;2023-06-26T11:50:05;32.70;99.90
15554;DHT22;7878;44.632;10.942;2023-06-26T11:52:32;32.70;99.90
15554;DHT22;7878;44.632;10.942;2023-06-26T11:54:58;32.60;99.90
15554;DHT22;7878;44.632;10.942;2023-06-26T11:57:24;32.50;99.90
15554;DHT22;7878;44.632;10.942;2023-06-26T11:59:50;32.50;99.90
15554;DHT22;7878;44.632;10.942;2023-06-26T12:02:17;32.50;99.90
15554;DHT22;7878;44.632;10.942;2023-06-26T12:04:44;32.50;99.90
15554;DHT22;7878;44.632;10.942;2023-06-26T12:07:11;32.40;99.90
15554;DHT22;7878;44.632;10.942;2023-06-26T12:09:45;32.50;99.90
15554;DHT22;7878;44.632;10.942;2023-06-26T12:12:14;32.40;99.90
15554;DHT22;7878;44.632;10.942;2023-06-26T12:14:41;32.30;99.90
15554;DHT22;7878;44.632;10.942;2023-06-26T12:17:12;32.30;99.90
15554;DHT22;7878;44.632;10.942;2023-06-26T12:19:45;32.40;99.90
15554;DHT22;7878;44.632;10.942;2023-06-26T12:22:15;32.30;99.90
15554;DHT22;7878;44.632;10.942;2023-06-26T12:24:43;32.20;99.90
15554;DHT22;7878;44.632;10.942;2023-06-26T12:27:10;32.20;99.90
15554;DHT22;7878;44.632;10.942;2023-06-26T12:29:37;32.30;99.90
15554;DHT22;7878;44.632;10.942;2023-06-26T12:32:03;32.30;99.90
15554;DHT22;7878;44.632;10.942;2023-06-26T12:34:31;32.30;99.90
15554;DHT22;7878;44.632;10.942;2023-06-26T12:37:05;32.40;99.90
15554;DHT22;7878;44.632;10.942;2023-06-26T12:42:20;32.30;99.90
15554;DHT22;7878;44.632;10.942;2023-06-26T12:44:46;32.30;99.90
15554;DHT22;7878;44.632;10.942;2023-06-26T12:47:14;32.30;99.90
15554;DHT22;7878;44.632;10.942;2023-06-26T12:49:41;32.30;99.90
15554;DHT22;7878;44.632;10.942;2023-06-26T12:52:14;32.30;99.90
15554;DHT22;7878;44.632;10.942;2023-06-26T12:54:41;32.30;99.90
15554;DHT22;7878;44.632;10.942;2023-06-26T12:57:07;32.40;99.90
15554;DHT22;7878;44.632;10.942;2023-06-26T12:59:36;32.40;99.90
15554;DHT22;7878;44.632;10.942;2023-06-26T13:02:01;32.30;99.90
15554;DHT22;7878;44.632;10.942;2023-06-26T13:04:28;32.30;99.90
15554;DHT22;7878;44.632;10.942;2023-06-26T13:06:54;32.30;99.90
15554;DHT22;7878;44.632;10.942;2023-06-26T13:09:21;32.30;99.90
15554;DHT22;7878;44.632;10.942;2023-06-26T13:11:47;32.30;99.90
15554;DHT22;7878;44.632;10.942;2023-06-26T13:14:12;32.30;99.90
15554;DHT22;7878;44.632;10.942;2023-06-26T13:16:39;32.30;99.90
15554;DHT22;7878;44.632;10.942;2023-06-26T13:19:05;32.40;99.90
15554;DHT22;7878;44.632;10.942;2023-06-26T13:21:31;32.40;99.90
15554;DHT22;7878;44.632;10.942;2023-06-26T13:23:57;32.50;99.90
15554;DHT22;7878;44.632;10.942;2023-06-26T13:26:23;32.50;99.90
15554;DHT22;7878;44.632;10.942;2023-06-26T13:28:50;32.50;99.90
15554;DHT22;7878;44.632;10.942;2023-06-26T13:31:16;32.50;99.90
15554;DHT22;7878;44.632;10.942;2023-06-26T13:33:42;32.50;99.90
15554;DHT22;7878;44.632;10.942;2023-06-26T13:36:08;32.40;99.90
15554;DHT22;7878;44.632;10.942;2023-06-26T13:38:33;32.40;99.90
15554;DHT22;7878;44.632;10.942;2023-06-26T13:41:00;32.40;99.90
15554;DHT22;7878;44.632;10.942;2023-06-26T13:43:26;32.40;99.90
15554;DHT22;7878;44.632;10.942;2023-06-26T13:45:53;32.40;99.90
15554;DHT22;7878;44.632;10.942;2023-06-26T13:48:19;32.40;99.90
15554;DHT22;7878;44.632;10.942;2023-06-26T13:50:46;32.50;99.90
15554;DHT22;7878;44.632;10.942;2023-06-26T13:53:12;32.50;99.90
15554;DHT22;7878;44.632;10.942;2023-06-26T13:55:38;32.50;99.90
15554;DHT22;7878;44.632;10.942;2023-06-26T13:58:04;32.50;99.90
15554;DHT22;7878;44.632;10.942;2023-06-26T14:00:32;32.50;99.90
15554;DHT22;7878;44.632;10.942;2023-06-26T14:03:02;32.50;99.90
15554;DHT22;7878;44.632;10.942;2023-06-26T14:05:29;32.50;99.90
15554;DHT22;7878;44.632;10.942;2023-06-26T14:07:55;32.50;99.90
15554;DHT22;7878;44.632;10.942;2023-06-26T14:10:22;32.50;99.90
15554;DHT22;7878;44.632;10.942;2023-06-26T14:12:47;32.50;99.90
15554;DHT22;7878;44.632;10.942;2023-06-26T14:15:13;32.40;99.90
15554;DHT22;7878;44.632;10.942;2023-06-26T14:17:39;32.40;99.90
15554;DHT22;7878;44.632;10.942;2023-06-26T14:20:09;32.40;99.90
15554;DHT22;7878;44.632;10.942;2023-06-26T14:22:36;32.50;99.90
15554;DHT22;7878;44.632;10.942;2023-06-26T14:25:03;32.50;99.90
15554;DHT22;7878;44.632;10.942;2023-06-26T14:27:28;32.50;99.90
15554;DHT22;7878;44.632;10.942;2023-06-26T14:29:54;32.50;99.90
15554;DHT22;7878;44.632;10.942;2023-06-26T14:32:19;32.50;99.90
15554;DHT22;7878;44.632;10.942;2023-06-26T14:34:45;32.50;99.90
15554;DHT22;7878;44.632;10.942;2023-06-26T14:37:11;32.50;99.90
15554;DHT22;7878;44.632;10.942;2023-06-26T14:39:36;32.60;99.90
15554;DHT22;7878;44.632;10.942;2023-06-26T14:42:04;32.60;99.90
15554;DHT22;7878;44.632;10.942;2023-06-26T14:44:30;32.60;99.90
15554;DHT22;7878;44.632;10.942;2023-06-26T14:46:56;32.60;99.90
15554;DHT22;7878;44.632;10.942;2023-06-26T14:49:21;32.60;99.90
15554;DHT22;7878;44.632;10.942;2023-06-26T14:51:47;32.60;99.90
15554;DHT22;7878;44.632;10.942;2023-06-26T14:54:13;32.60;99.90
15554;DHT22;7878;44.632;10.942;2023-06-26T14:56:38;32.60;99.90
15554;DHT22;7878;44.632;10.942;2023-06-26T14:59:04;32.50;99.90
15554;DHT22;7878;44.632;10.942;2023-06-26T15:01:33;32.50;99.90
15554;DHT22;7878;44.632;10.942;2023-06-26T15:03:59;32.60;99.90
15554;DHT22;7878;44.632;10.942;2023-06-26T15:06:24;32.70;99.90
15554;DHT22;7878;44.632;10.942;2023-06-26T15:08:50;32.60;99.90
15554;DHT22;7878;44.632;10.942;2023-06-26T15:11:17;32.70;99.90
15554;DHT22;7878;44.632;10.942;2023-06-26T15:13:43;32.60;99.90
15554;DHT22;7878;44.632;10.942;2023-06-26T15:16:08;32.60;99.90
15554;DHT22;7878;44.632;10.942;2023-06-26T15:18:35;32.70;99.90
15554;DHT22;7878;44.632;10.942;2023-06-26T15:21:00;32.70;99.90
15554;DHT22;7878;44.632;10.942;2023-06-26T15:23:28;32.70;99.90
15554;DHT22;7878;44.632;10.942;2023-06-26T15:25:54;32.70;99.90
15554;DHT22;7878;44.632;10.942;2023-06-26T15:28:20;32.60;99.90
15554;DHT22;7878;44.632;10.942;2023-06-26T15:30:46;32.70;99.90
15554;DHT22;7878;44.632;10.942;2023-06-26T15:33:12;32.70;99.90
15554;DHT22;7878;44.632;10.942;2023-06-26T15:35:38;32.70;99.90
15554;DHT22;7878;44.632;10.942;2023-06-26T15:38:04;32.70;99.90